Aérodrome :
LOGIN :

S'inscrire | Disclaimer

   EN    FR    IT 

 










Légende :    VFR   VFR Marginal   IFR   IFR Intensif   IFR Très Intensif
Visi : 
Plafond : 
>= 8 km
>= 3000ft
5 à 8 km
1000 à 3000 ft
1500m à 5 km
500 à 1000 ft
800 à 1500m
200 à 500 ft
< 800m
< 200 ft
Symboles :   Orages  Brouillard  Fortes neiges  Fortes précipitations  Vent > 20 kt
SIGMETs :   Divers  Orages  Givrage  Turbulence  Onde Orograph.  Cendres Volcan.






- Altitude de l'aérodrome : 187 ft


ETNW - Wunstorf AB

DERNIER METAR :
  • 252120Z 25006KT 9999 SCT026 BKN050 11/10 Q1002 BLU

METARs EXPIRÉS :
  • 252020Z 15004KT 9999 SCT060 BKN130 12/12 Q1002 BLU
  • 251920Z 22006KT 9999 SCT025 BKN130 12/12 Q1002 BLU

TAF TAF ETNW
Valide du 25 à 18h jusqu'au 26 à 18h UTC


251700Z 2518/2618 19008KT 7000 -RA SCT025 BKN040
TEMPO 2518/2604 18006KT 4000 RADZ SCT010 BKN015
BECMG 2603/2605 19008KT 4000 BR SCT010 BKN020 BKN100
TEMPO 2604/2609 15005KT 1500 BR BKN010 OVC015 BKN100
TEMPO 2604/2618 17008KT 2000 RADZ BKN015 BKN040 BKN100 BY ETGL



MET'MAP, la Météo Aéronautique d'un coup d'oeil ! - Copyright ORBIFLY Décembre 2007 - Disclaimer

ORBIFLY MET'MAP TEAM :

Programmation & Développement : Alexandra Zaïnal
Sur une idée originale de : Baudouin d'Aumeries
Assistance à la programmation : Marc-Olivier Méhu
Soutien technique & logistique : Manuel Goepfert

Contact : metmap@orbifly.com




SOURCES & CREDITS :

   NOAA